Time;durP1;ratioP1;P1;durP2;ratioP2;P2;SDS_P1;SDS_P2;PMS_P1;PMS_P2;Temp;Humidity;BMP_temperature;BMP_pressure;BME280_temperature;BME280_humidity;BME280_pressure;Samples;Min_cycle;Max_cycle;Signal;HPM_P1;HPM_P2
2021/09/17 00:00:44;;;;;;;1.20;1.00;;;;;;;16.94;98.05;100786.03;5060682;28;20446;-82
2021/09/17 00:03:10;;;;;;;1.00;0.90;;;;;;;16.96;97.14;100794.72;5059683;28;20815;-82
2021/09/17 00:05:37;;;;;;;1.97;1.10;;;;;;;16.96;97.92;100788.44;5059307;28;20462;-82
2021/09/17 00:08:03;;;;;;;1.57;1.47;;;;;;;16.96;97.94;100789.25;5058552;28;20447;-82
2021/09/17 00:10:30;;;;;;;1.53;1.00;;;;;;;16.93;98.50;100781.69;5058378;28;20435;-82
2021/09/17 00:12:58;;;;;;;4.10;1.27;;;;;;;16.93;98.31;100772.69;5058158;28;20426;-81
2021/09/17 00:15:24;;;;;;;2.60;0.90;;;;;;;16.97;97.24;100776.34;5059140;28;20465;-81
2021/09/17 00:17:51;;;;;;;4.07;1.10;;;;;;;16.97;97.33;100782.63;5058876;28;20966;-81
2021/09/17 00:20:17;;;;;;;2.47;1.43;;;;;;;16.96;97.37;100781.03;5059910;28;20446;-82
2021/09/17 00:22:45;;;;;;;2.70;1.13;;;;;;;16.95;97.25;100784.88;5060034;28;20470;-83
2021/09/17 00:25:12;;;;;;;1.20;1.00;;;;;;;16.97;97.65;100790.84;5059560;28;20497;-81
2021/09/17 00:27:39;;;;;;;1.47;1.00;;;;;;;16.93;98.00;100783.63;5060067;28;20525;-81
2021/09/17 00:30:09;;;;;;;1.07;0.97;;;;;;;16.90;97.37;100776.91;5060630;28;20438;-83
2021/09/17 00:32:35;;;;;;;2.70;1.70;;;;;;;16.90;97.56;100774.97;5061810;28;20442;-82
2021/09/17 00:35:02;;;;;;;5.30;1.53;;;;;;;16.92;97.27;100774.63;5062105;28;20469;-81
2021/09/17 00:37:28;;;;;;;1.30;0.80;;;;;;;16.96;97.04;100777.50;5056888;28;20449;-80
2021/09/17 00:39:55;;;;;;;2.90;1.10;;;;;;;16.89;97.59;100773.38;5056388;28;20451;-80
2021/09/17 00:42:21;;;;;;;2.03;1.40;;;;;;;16.93;97.28;100778.16;5056260;28;20443;-81
2021/09/17 00:44:48;;;;;;;1.33;1.20;;;;;;;16.92;97.42;100779.31;5056328;28;20923;-81
2021/09/17 00:47:16;;;;;;;1.23;1.10;;;;;;;16.96;97.13;100780.25;5056009;28;20485;-81
2021/09/17 00:49:42;;;;;;;1.10;1.00;;;;;;;16.90;97.32;100772.22;5056123;28;20450;-82
2021/09/17 00:52:09;;;;;;;2.03;1.43;;;;;;;16.90;97.58;100769.47;5056060;28;20426;-82
2021/09/17 00:54:35;;;;;;;4.23;1.03;;;;;;;16.90;98.01;100777.69;5055871;28;20462;-81
2021/09/17 00:57:03;;;;;;;1.50;1.00;;;;;;;16.87;97.72;100769.38;5055793;28;20443;-82
2021/09/17 00:59:29;;;;;;;2.23;1.20;;;;;;;16.88;97.59;100770.97;5055635;28;20816;-82
2021/09/17 01:01:56;;;;;;;6.17;1.00;;;;;;;16.91;97.64;100764.84;5055941;28;20446;-81
2021/09/17 01:04:24;;;;;;;0.87;0.87;;;;;;;16.92;97.35;100766.44;5055463;28;20501;-82
2021/09/17 01:06:50;;;;;;;1.67;1.30;;;;;;;16.87;97.73;100766.66;5055378;28;20514;-82
2021/09/17 01:09:17;;;;;;;1.23;1.13;;;;;;;16.83;97.93;100763.78;5055160;28;20904;-82
2021/09/17 01:11:45;;;;;;;1.40;1.00;;;;;;;16.87;97.98;100752.97;5055102;28;20450;-81
2021/09/17 01:14:11;;;;;;;0.60;0.60;;;;;;;16.87;97.68;100756.50;5054982;28;20458;-81
2021/09/17 01:16:38;;;;;;;3.67;1.13;;;;;;;16.79;98.49;100760.13;5055001;28;20438;-80
2021/09/17 01:19:04;;;;;;;2.70;1.10;;;;;;;16.85;97.69;100757.97;5058560;28;20437;-81
2021/09/17 01:21:32;;;;;;;3.17;1.93;;;;;;;16.88;97.33;100757.28;5058008;28;20453;-81
2021/09/17 01:23:58;;;;;;;2.43;0.97;;;;;;;16.88;97.16;100760.03;5057985;28;20497;-81
2021/09/17 01:26:25;;;;;;;2.13;1.27;;;;;;;16.88;96.67;100754.56;5113945;22;20496;-71
2021/09/17 01:28:51;;;;;;;2.00;1.60;;;;;;;16.82;96.54;100762.19;5089603;28;20457;-71
2021/09/17 01:31:18;;;;;;;2.23;1.47;;;;;;;16.87;96.83;100761.97;5076442;28;20453;-71
2021/09/17 01:33:44;;;;;;;1.60;1.20;;;;;;;16.82;97.13;100756.72;5076429;28;20457;-71
2021/09/17 01:36:12;;;;;;;1.17;0.87;;;;;;;16.82;96.95;100750.44;5076512;28;20482;-71
2021/09/17 01:38:42;;;;;;;2.73;0.97;;;;;;;16.84;96.96;100753.63;5076259;28;20472;-71
2021/09/17 01:41:10;;;;;;;2.00;1.00;;;;;;;16.80;96.93;100755.44;5076255;28;20440;-71
2021/09/17 01:43:36;;;;;;;2.03;1.50;;;;;;;16.82;97.32;100751.25;5086410;28;20449;-71
2021/09/17 01:46:03;;;;;;;2.10;1.13;;;;;;;16.80;97.08;100755.44;5096347;28;20487;-71
2021/09/17 01:48:30;;;;;;;2.50;0.90;;;;;;;16.80;96.76;100745.31;5095357;28;20969;-71
2021/09/17 01:50:57;;;;;;;1.53;1.43;;;;;;;16.78;96.67;100746.78;5096026;28;20869;-71
2021/09/17 01:53:24;;;;;;;1.93;1.07;;;;;;;16.78;97.02;100747.59;5096023;28;20833;-71
2021/09/17 01:55:51;;;;;;;2.10;0.90;;;;;;;16.78;96.74;100746.78;5096320;28;20797;-71
2021/09/17 01:58:18;;;;;;;1.83;1.13;;;;;;;16.71;97.00;100750.03;5096171;28;20487;-72
2021/09/17 02:00:44;;;;;;;14.20;1.70;;;;;;;16.72;97.05;100746.19;5094444;28;20448;-72
2021/09/17 02:03:11;;;;;;;1.27;0.70;;;;;;;16.73;96.98;100744.25;5095827;28;20929;-72
2021/09/17 02:05:38;;;;;;;0.80;0.70;;;;;;;16.75;97.67;100751.00;5096028;28;20480;-72
2021/09/17 02:08:05;;;;;;;0.97;0.90;;;;;;;16.79;97.17;100746.44;5095630;28;21003;-72
2021/09/17 02:10:31;;;;;;;1.60;0.97;;;;;;;16.76;97.16;100747.13;5095997;28;20441;-72
2021/09/17 02:12:59;;;;;;;1.70;1.37;;;;;;;16.73;97.72;100736.84;5094073;28;20510;-72
2021/09/17 02:15:26;;;;;;;3.70;1.23;;;;;;;16.76;98.33;100741.66;5075735;28;20453;-72
2021/09/17 02:17:52;;;;;;;1.00;0.90;;;;;;;16.81;97.39;100740.63;5075454;28;20468;-72
2021/09/17 02:20:18;;;;;;;2.40;1.23;;;;;;;16.75;96.84;100734.59;5075511;28;20445;-72
2021/09/17 02:22:45;;;;;;;1.20;0.97;;;;;;;16.72;96.88;100729.78;5075594;28;20468;-72
2021/09/17 02:25:12;;;;;;;4.10;0.97;;;;;;;16.70;97.47;100728.50;5074948;28;20493;-71
2021/09/17 02:27:38;;;;;;;1.30;1.20;;;;;;;16.60;98.25;100729.72;5086241;28;20464;-72
2021/09/17 02:30:09;;;;;;;1.73;1.10;;;;;;;16.65;97.90;100732.25;5093992;28;20440;-72
2021/09/17 02:32:36;;;;;;;1.67;1.27;;;;;;;16.66;96.92;100725.66;5095653;28;20436;-71
2021/09/17 02:35:03;;;;;;;2.10;1.00;;;;;;;16.63;96.96;100731.78;5095169;28;20448;-72
2021/09/17 02:37:29;;;;;;;1.97;0.90;;;;;;;16.63;96.74;100731.78;5095440;28;20457;-72
2021/09/17 02:39:56;;;;;;;2.10;1.20;;;;;;;16.58;96.81;100723.78;5094928;28;20818;-72
2021/09/17 02:42:22;;;;;;;1.10;1.00;;;;;;;16.61;96.77;100739.53;5075158;28;20441;-71
2021/09/17 02:44:49;;;;;;;8.47;1.53;;;;;;;16.59;96.76;100726.19;5075046;28;20488;-71
2021/09/17 02:47:17;;;;;;;3.80;1.30;;;;;;;16.58;97.05;100721.84;5074753;28;21080;-72
2021/09/17 02:49:44;;;;;;;2.23;1.10;;;;;;;16.52;97.97;100725.16;5075088;28;20444;-72
2021/09/17 02:52:10;;;;;;;3.50;0.93;;;;;;;16.51;97.93;100729.00;5074943;28;20438;-72
2021/09/17 02:54:36;;;;;;;2.93;1.23;;;;;;;16.56;97.68;100726.09;5084086;28;20444;-72
2021/09/17 02:57:03;;;;;;;1.33;0.80;;;;;;;16.51;98.59;100718.06;5094708;28;20467;-72
2021/09/17 02:59:30;;;;;;;1.20;0.80;;;;;;;16.44;98.55;100720.56;5095046;28;20441;-72
2021/09/17 03:01:56;;;;;;;2.50;1.03;;;;;;;16.46;98.77;100713.63;5094965;28;20440;-72
2021/09/17 03:04:24;;;;;;;1.77;1.40;;;;;;;16.42;98.90;100715.41;5094569;28;20448;-72
2021/09/17 03:06:50;;;;;;;1.40;1.03;;;;;;;16.41;99.07;100716.56;5094887;28;20448;-72
2021/09/17 03:09:16;;;;;;;5.40;1.10;;;;;;;16.40;99.43;100713.03;5087910;28;20863;-72
2021/09/17 03:11:43;;;;;;;1.07;0.93;;;;;;;16.38;99.27;100712.59;5094788;28;20444;-72
2021/09/17 03:14:09;;;;;;;2.43;1.43;;;;;;;16.35;99.58;100717.94;5094738;28;20436;-72
2021/09/17 03:16:36;;;;;;;1.20;1.10;;;;;;;16.33;99.70;100715.50;5094551;28;20437;-72
2021/09/17 03:19:02;;;;;;;6.73;1.97;;;;;;;16.32;100.00;100715.84;5094544;28;20838;-72
2021/09/17 03:21:30;;;;;;;2.67;0.90;;;;;;;16.31;100.00;100717.78;5087208;28;20503;-72
2021/09/17 03:23:56;;;;;;;1.93;1.33;;;;;;;16.31;99.97;100715.06;5074531;28;20437;-72
2021/09/17 03:26:23;;;;;;;1.03;0.93;;;;;;;16.32;100.00;100705.72;5073855;28;20481;-71
2021/09/17 03:28:49;;;;;;;1.40;0.90;;;;;;;16.26;100.00;100709.81;5074174;28;20465;-72
2021/09/17 03:31:16;;;;;;;3.60;1.23;;;;;;;16.22;100.00;100706.13;5074121;28;20459;-72
2021/09/17 03:33:42;;;;;;;1.17;1.10;;;;;;;16.28;99.89;100714.94;5074041;28;20446;-71
2021/09/17 03:36:09;;;;;;;1.13;0.97;;;;;;;16.25;100.00;100710.94;5089855;28;20448;-72
2021/09/17 03:38:36;;;;;;;1.87;1.20;;;;;;;16.28;100.00;100709.47;5094233;28;20807;-72
2021/09/17 03:41:03;;;;;;;2.00;1.07;;;;;;;16.31;100.00;100700.59;5093923;28;20502;-72
2021/09/17 03:43:30;;;;;;;1.83;1.13;;;;;;;16.31;100.00;100704.13;5093944;28;20937;-72
2021/09/17 03:45:56;;;;;;;1.13;1.07;;;;;;;16.33;99.93;100701.03;5094037;28;20831;-73
2021/09/17 03:48:23;;;;;;;1.40;0.87;;;;;;;16.26;99.29;100701.59;5088647;28;20457;-72
2021/09/17 03:50:49;;;;;;;4.63;1.50;;;;;;;16.21;99.37;100703.75;5073795;28;20494;-71
2021/09/17 03:53:16;;;;;;;1.83;1.13;;;;;;;16.06;100.00;100705.94;5073818;28;20449;-72
2021/09/17 03:55:43;;;;;;;1.10;0.77;;;;;;;15.83;100.00;100708.22;5073774;28;20441;-72
2021/09/17 03:58:10;;;;;;;0.70;0.70;;;;;;;15.64;100.00;100696.97;5073558;28;20465;-72
2021/09/17 04:00:37;;;;;;;1.17;0.77;;;;;;;15.54;100.00;100700.88;5073633;28;20438;-73
2021/09/17 04:03:04;;;;;;;0.90;0.70;;;;;;;15.43;100.00;100707.03;5087612;28;20448;-72
2021/09/17 04:05:31;;;;;;;0.50;0.40;;;;;;;15.36;100.00;100702.91;5093750;28;20529;-72
2021/09/17 04:07:57;;;;;;;1.70;1.00;;;;;;;15.30;100.00;100698.75;5093420;28;20880;-72
2021/09/17 04:10:24;;;;;;;2.00;1.13;;;;;;;15.27;100.00;100704.06;5093822;28;20444;-72
2021/09/17 04:12:52;;;;;;;6.70;1.23;;;;;;;15.25;100.00;100707.16;5093716;28;20443;-71
2021/09/17 04:15:18;;;;;;;1.43;1.03;;;;;;;15.22;100.00;100693.34;5090477;28;20441;-70
2021/09/17 04:17:45;;;;;;;0.67;0.57;;;;;;;15.20;100.00;100699.16;5098360;22;20508;-68
2021/09/17 04:20:12;;;;;;;0.90;0.70;;;;;;;15.25;100.00;100709.06;5073508;28;20422;-68
2021/09/17 04:22:39;;;;;;;1.83;1.27;;;;;;;15.26;100.00;100697.81;5073492;28;20445;-68
2021/09/17 04:25:07;;;;;;;1.00;0.90;;;;;;;15.25;100.00;100707.16;5073291;28;20481;-68
2021/09/17 04:27:34;;;;;;;1.80;1.00;;;;;;;15.28;100.00;100698.31;5073355;28;20441;-68
2021/09/17 04:30:03;;;;;;;2.10;0.73;;;;;;;15.27;100.00;100696.72;5073117;28;20468;-68
2021/09/17 04:32:29;;;;;;;1.30;0.73;;;;;;;15.24;100.00;100702.81;5073406;28;20437;-68
2021/09/17 04:34:56;;;;;;;3.23;1.20;;;;;;;15.26;100.00;100703.28;5073075;28;20441;-68
2021/09/17 04:37:22;;;;;;;2.03;1.10;;;;;;;15.29;100.00;100702.63;5073296;28;20441;-67
2021/09/17 04:39:48;;;;;;;1.07;0.70;;;;;;;15.36;100.00;100704.81;5071551;28;20453;-66
2021/09/17 04:42:15;;;;;;;0.97;0.73;;;;;;;15.41;100.00;100714.78;5070797;28;20973;-66
2021/09/17 04:44:41;;;;;;;0.70;0.70;;;;;;;15.39;100.00;100709.63;5072487;28;20441;-66
2021/09/17 04:47:09;;;;;;;0.97;0.87;;;;;;;15.36;100.00;100705.66;5072722;28;20450;-65
2021/09/17 04:49:36;;;;;;;2.60;0.90;;;;;;;15.44;100.00;100703.97;5072966;28;20461;-66
2021/09/17 04:52:03;;;;;;;2.40;0.60;;;;;;;15.45;100.00;100712.97;5073338;28;20441;-65
2021/09/17 04:54:29;;;;;;;1.60;1.10;;;;;;;15.41;100.00;100706.59;5077123;28;20935;-66
2021/09/17 04:56:56;;;;;;;0.73;0.50;;;;;;;15.47;100.00;100714.25;5077150;28;20444;-67
2021/09/17 04:59:22;;;;;;;1.27;0.73;;;;;;;15.49;100.00;100714.69;5077009;28;20468;-67
2021/09/17 05:01:48;;;;;;;3.80;0.77;;;;;;;15.54;100.00;100719.19;5076553;28;20441;-67
2021/09/17 05:04:16;;;;;;;0.70;0.40;;;;;;;15.51;100.00;100717.13;5077154;28;20443;-67
2021/09/17 05:06:43;;;;;;;2.40;0.60;;;;;;;15.49;99.88;100716.63;5076661;28;20484;-68
2021/09/17 05:09:09;;;;;;;1.57;0.80;;;;;;;15.50;99.32;100715.53;5076485;28;20465;-68
2021/09/17 05:11:36;;;;;;;2.10;1.07;;;;;;;15.53;98.74;100712.09;5076868;28;20452;-68
2021/09/17 05:14:02;;;;;;;0.90;0.70;;;;;;;15.52;97.79;100721.44;5076342;28;20818;-68
2021/09/17 05:16:32;;;;;;;0.80;0.50;;;;;;;15.53;98.14;100723.03;5076779;28;20437;-68
2021/09/17 05:18:58;;;;;;;1.00;0.50;;;;;;;15.49;96.61;100724.81;5076284;28;20477;-67
2021/09/17 05:21:26;;;;;;;0.50;0.47;;;;;;;15.46;96.03;100718.09;5076602;28;20449;-68
2021/09/17 05:23:53;;;;;;;11.53;1.27;;;;;;;15.50;95.64;100729.19;5076322;28;20444;-68
2021/09/17 05:26:19;;;;;;;0.90;0.40;;;;;;;15.51;95.79;100728.03;5076253;28;20852;-68
2021/09/17 05:28:46;;;;;;;1.13;0.40;;;;;;;15.50;95.49;100729.97;5076416;28;20464;-67
2021/09/17 05:31:12;;;;;;;0.60;0.50;;;;;;;15.57;95.18;100735.69;5076499;28;20445;-68
2021/09/17 05:33:39;;;;;;;0.80;0.50;;;;;;;15.56;94.77;100736.03;5075973;28;20830;-68
2021/09/17 05:36:05;;;;;;;0.93;0.70;;;;;;;15.53;94.45;100736.69;5076528;28;20425;-64
2021/09/17 05:38:33;;;;;;;0.70;0.60;;;;;;;15.51;94.04;100736.22;5076069;28;20463;-64
2021/09/17 05:40:59;;;;;;;1.63;0.80;;;;;;;15.46;93.97;100739.94;5076202;28;20498;-69
2021/09/17 05:43:26;;;;;;;0.53;0.50;;;;;;;15.39;95.36;100737.72;5075446;28;20969;-69
2021/09/17 05:45:52;;;;;;;0.80;0.57;;;;;;;15.31;94.86;100741.28;5076293;28;20484;-68
2021/09/17 05:48:19;;;;;;;0.40;0.30;;;;;;;15.29;95.13;100729.91;5076362;28;20465;-68
2021/09/17 05:50:45;;;;;;;0.80;0.40;;;;;;;15.33;95.51;100736.31;5068899;28;20438;-68
2021/09/17 05:53:12;;;;;;;1.80;0.53;;;;;;;15.32;95.26;100734.72;5056191;28;20446;-69
2021/09/17 05:55:40;;;;;;;0.60;0.50;;;;;;;15.36;95.12;100735.69;5056305;28;20453;-69
2021/09/17 05:58:06;;;;;;;0.50;0.40;;;;;;;15.29;95.70;100727.19;5055903;28;20462;-69
2021/09/17 06:00:33;;;;;;;0.93;0.50;;;;;;;15.33;95.75;100724.59;5056160;28;20449;-69
2021/09/17 06:02:59;;;;;;;1.23;0.63;;;;;;;15.35;96.29;100739.50;5055763;28;20439;-69
2021/09/17 06:05:26;;;;;;;0.80;0.53;;;;;;;15.46;95.55;100729.03;5055912;28;20482;-69
2021/09/17 06:07:52;;;;;;;0.60;0.40;;;;;;;15.51;95.35;100730.78;5055757;28;20470;-70
2021/09/17 06:10:19;;;;;;;1.63;0.70;;;;;;;15.50;94.46;100735.44;5055819;28;20442;-69
2021/09/17 06:12:47;;;;;;;0.50;0.40;;;;;;;15.48;93.77;100736.88;5055809;28;20465;-69
2021/09/17 06:15:16;;;;;;;9.30;0.60;;;;;;;15.49;94.10;100730.28;5055860;28;20442;-69
2021/09/17 06:17:42;;;;;;;0.70;0.50;;;;;;;15.49;93.50;100738.47;5055594;28;20521;-68
2021/09/17 06:20:11;;;;;;;3.03;0.47;;;;;;;15.56;93.84;100741.50;5055814;28;20427;-69
2021/09/17 06:22:39;;;;;;;0.60;0.43;;;;;;;15.52;93.39;100733.16;5055412;28;20939;-69
2021/09/17 06:25:06;;;;;;;0.50;0.47;;;;;;;15.58;93.90;100731.03;5055354;28;20446;-70
2021/09/17 06:27:33;;;;;;;0.90;0.80;;;;;;;15.58;92.79;100737.31;5055412;28;20489;-69
2021/09/17 06:30:01;;;;;;;2.23;0.40;;;;;;;15.65;92.35;100728.63;5055487;28;20889;-69
2021/09/17 06:32:27;;;;;;;0.60;0.50;;;;;;;15.63;91.67;100725.41;5055467;28;20449;-69
2021/09/17 06:34:53;;;;;;;0.50;0.43;;;;;;;15.61;91.27;100735.84;5055566;28;20445;-69
2021/09/17 06:37:20;;;;;;;0.80;0.57;;;;;;;15.57;91.21;100734.91;5054979;28;20815;-69
2021/09/17 06:39:46;;;;;;;0.50;0.33;;;;;;;15.56;91.53;100736.81;5055409;28;20469;-69
2021/09/17 06:42:13;;;;;;;5.50;0.60;;;;;;;15.49;91.56;100743.94;5054952;28;20966;-68
2021/09/17 06:44:39;;;;;;;2.03;0.40;;;;;;;15.57;91.41;100737.63;5055427;28;20442;-69
2021/09/17 06:47:07;;;;;;;1.17;0.90;;;;;;;15.61;91.64;100741.28;5055166;28;20493;-70
2021/09/17 06:49:35;;;;;;;0.50;0.30;;;;;;;15.67;90.56;100737.28;5055384;28;20485;-68
2021/09/17 06:52:01;;;;;;;0.87;0.50;;;;;;;15.64;91.88;100738.75;5055102;28;20447;-69
2021/09/17 06:54:27;;;;;;;0.50;0.40;;;;;;;15.72;91.34;100739.03;5055198;28;20438;-69
2021/09/17 06:56:54;;;;;;;0.70;0.50;;;;;;;15.79;90.77;100731.88;5054648;28;21001;-68
2021/09/17 06:59:20;;;;;;;6.87;1.00;;;;;;;15.81;89.88;100739.75;5054817;28;20455;-68
2021/09/17 07:01:47;;;;;;;0.60;0.50;;;;;;;15.80;89.73;100732.69;5054824;28;20438;-67
2021/09/17 07:04:14;;;;;;;0.50;0.50;;;;;;;15.89;89.92;100744.34;5054858;28;20446;-68
2021/09/17 07:06:41;;;;;;;0.93;0.40;;;;;;;15.97;89.97;100740.75;5054735;28;20509;-68
2021/09/17 07:09:07;;;;;;;0.80;0.50;;;;;;;15.99;89.23;100740.44;5054658;28;20462;-69
2021/09/17 07:11:34;;;;;;;0.50;0.40;;;;;;;16.03;88.36;100741.38;5054896;28;20492;-67
2021/09/17 07:14:01;;;;;;;1.13;0.70;;;;;;;16.05;87.01;100741.81;5054292;28;20962;-69
2021/09/17 07:16:27;;;;;;;0.50;0.37;;;;;;;16.01;87.21;100743.63;5053976;28;20434;-68
2021/09/17 07:18:54;;;;;;;0.60;0.40;;;;;;;15.98;87.39;100753.28;5054217;28;20477;-68
2021/09/17 07:21:21;;;;;;;0.50;0.40;;;;;;;16.04;86.29;100756.63;5054660;28;20439;-68
2021/09/17 07:23:48;;;;;;;3.57;0.50;;;;;;;16.07;85.86;100747.72;5054557;28;20457;-66
2021/09/17 07:26:14;;;;;;;0.50;0.30;;;;;;;16.08;84.97;100743.88;5066141;28;20492;-68
2021/09/17 07:28:41;;;;;;;0.50;0.30;;;;;;;16.10;84.71;100745.13;5074333;28;20484;-67
2021/09/17 07:31:07;;;;;;;0.50;0.33;;;;;;;16.12;84.67;100744.81;5074243;28;20445;-67
2021/09/17 07:33:34;;;;;;;0.70;0.50;;;;;;;16.20;84.75;100745.88;5074289;28;20503;-68
2021/09/17 07:36:00;;;;;;;0.50;0.40;;;;;;;16.20;84.42;100745.88;5074197;28;20444;-68
2021/09/17 07:38:28;;;;;;;0.50;0.30;;;;;;;16.22;83.52;100749.88;5074091;28;20472;-67
2021/09/17 07:40:54;;;;;;;0.50;0.37;;;;;;;16.21;83.87;100748.28;5074074;28;20456;-68
2021/09/17 07:43:21;;;;;;;0.50;0.40;;;;;;;16.24;82.20;100747.59;5073910;28;20449;-68
2021/09/17 07:45:47;;;;;;;1.70;0.50;;;;;;;16.15;82.30;100747.66;5073895;28;20448;-67
2021/09/17 07:48:14;;;;;;;0.40;0.30;;;;;;;16.18;81.75;100753.63;5073890;28;20453;-67
2021/09/17 07:50:40;;;;;;;0.50;0.30;;;;;;;16.17;81.37;100747.34;5073913;28;20976;-67
2021/09/17 07:53:07;;;;;;;4.20;0.80;;;;;;;16.11;82.41;100744.03;5073842;28;20452;-67
2021/09/17 07:55:35;;;;;;;0.50;0.40;;;;;;;16.24;82.52;100746.78;5073925;28;20437;-68
2021/09/17 07:58:02;;;;;;;0.50;0.40;;;;;;;16.27;82.54;100752.41;5073757;28;20457;-68
2021/09/17 08:00:28;;;;;;;3.40;0.40;;;;;;;16.33;82.13;100761.97;5074077;28;20441;-68
2021/09/17 08:02:55;;;;;;;1.50;0.57;;;;;;;16.37;82.72;100762.13;5073785;28;20446;-66
2021/09/17 08:05:21;;;;;;;0.50;0.30;;;;;;;16.43;81.35;100760.78;5073719;28;20848;-67
2021/09/17 08:07:48;;;;;;;0.60;0.47;;;;;;;16.41;81.75;100765.78;5073471;28;20485;-68
2021/09/17 08:10:14;;;;;;;0.40;0.30;;;;;;;16.43;81.61;100760.00;5073748;28;20445;-67
2021/09/17 08:12:42;;;;;;;0.50;0.30;;;;;;;16.42;81.01;100759.16;5073545;28;20534;-67
2021/09/17 08:15:09;;;;;;;0.67;0.50;;;;;;;16.49;81.73;100770.38;5073564;28;20453;-68
2021/09/17 08:17:37;;;;;;;0.50;0.40;;;;;;;16.56;81.07;100756.97;5073253;28;20449;-67
2021/09/17 08:20:04;;;;;;;1.57;0.60;;;;;;;16.60;80.69;100770.75;5072857;28;20876;-67
2021/09/17 08:22:30;;;;;;;0.60;0.40;;;;;;;16.58;80.74;100767.56;5072651;28;20449;-67
2021/09/17 08:24:57;;;;;;;1.93;0.50;;;;;;;16.56;80.99;100775.31;5072299;28;20987;-68
2021/09/17 08:27:23;;;;;;;0.83;0.43;;;;;;;16.57;80.06;100779.63;5072438;28;20488;-68
2021/09/17 08:29:51;;;;;;;0.60;0.30;;;;;;;16.63;80.52;100764.59;5072694;28;20449;-66
2021/09/17 08:32:17;;;;;;;0.50;0.30;;;;;;;16.58;80.41;100773.03;5072507;28;20448;-67
2021/09/17 08:34:44;;;;;;;1.27;0.67;;;;;;;16.60;80.08;100777.03;5072599;28;20471;-67
2021/09/17 08:37:10;;;;;;;0.50;0.40;;;;;;;16.54;79.98;100775.63;5072481;28;20433;-67
2021/09/17 08:39:38;;;;;;;0.47;0.30;;;;;;;16.60;80.85;100784.41;5072433;28;20550;-67
2021/09/17 08:42:07;;;;;;;1.33;0.53;;;;;;;16.53;80.52;100781.44;5072453;28;20452;-66
2021/09/17 08:44:34;;;;;;;0.40;0.30;;;;;;;16.54;81.05;100793.97;5072052;28;20935;-67
2021/09/17 08:47:02;;;;;;;0.40;0.30;;;;;;;16.59;81.02;100786.34;5072274;28;20484;-68
2021/09/17 08:49:29;;;;;;;1.90;0.40;;;;;;;16.65;81.24;100789.69;5072270;28;20464;-68
2021/09/17 08:51:55;;;;;;;0.60;0.40;;;;;;;16.62;81.35;100790.38;5072452;28;20445;-69
2021/09/17 08:54:22;;;;;;;1.90;0.40;;;;;;;16.59;81.78;100794.56;5072507;28;20441;-67
2021/09/17 08:56:48;;;;;;;0.50;0.30;;;;;;;16.65;81.13;100795.16;5071947;28;20938;-68
2021/09/17 08:59:15;;;;;;;0.40;0.30;;;;;;;16.70;81.27;100803.16;5072115;28;20469;-68
2021/09/17 09:01:41;;;;;;;0.40;0.30;;;;;;;16.77;80.33;100791.69;5072297;28;20511;-67
2021/09/17 09:04:09;;;;;;;0.40;0.30;;;;;;;16.80;80.53;100800.03;5072263;28;20465;-67
2021/09/17 09:06:37;;;;;;;5.50;0.50;;;;;;;16.78;80.51;100807.78;5072292;28;20483;-68
2021/09/17 09:09:04;;;;;;;0.50;0.40;;;;;;;16.79;80.40;100792.97;5072051;28;20468;-68
2021/09/17 09:11:31;;;;;;;2.00;0.40;;;;;;;16.78;80.32;100791.38;5072042;28;20436;-68
2021/09/17 09:14:06;;;;;;;0.50;0.40;;;;;;;16.77;80.79;100800.69;5072221;28;20441;-68
2021/09/17 09:16:34;;;;;;;0.50;0.50;;;;;;;16.83;81.15;100793.88;5072051;28;20430;-68
2021/09/17 09:22:09;;;;;;;2.20;0.30;;;;;;;16.99;81.79;100788.53;5090895;27;21015;-67
2021/09/17 09:24:39;;;;;;;0.50;0.40;;;;;;;17.01;80.33;100796.44;5090527;28;20450;-67
2021/09/17 09:27:08;;;;;;;0.40;0.30;;;;;;;17.10;79.68;100800.66;5091044;28;20437;-67
2021/09/17 09:29:35;;;;;;;1.20;0.40;;;;;;;17.03;79.15;100791.41;5090752;28;20467;-67
2021/09/17 09:32:02;;;;;;;2.73;0.50;;;;;;;16.99;80.35;100793.22;5090761;28;20444;-67
2021/09/17 09:34:47;;;;;;;0.50;0.40;;;;;;;17.03;80.47;100797.69;5090610;28;20445;-67
2021/09/17 09:37:18;;;;;;;0.83;0.40;;;;;;;17.09;80.96;100799.06;5090759;28;20413;-67
2021/09/17 09:39:56;;;;;;;0.50;0.40;;;;;;;17.16;80.51;100803.97;5090559;28;20878;-67
2021/09/17 09:42:31;;;;;;;0.50;0.40;;;;;;;17.18;79.88;100801.72;5090672;28;20417;-67
2021/09/17 09:45:16;;;;;;;0.50;0.40;;;;;;;17.21;79.56;100806.50;5090562;28;20425;-68
2021/09/17 09:47:45;;;;;;;0.87;0.57;;;;;;;17.23;79.12;100803.44;5090435;28;20465;-68
2021/09/17 09:50:15;;;;;;;2.20;0.40;;;;;;;17.19;79.62;100802.50;5090509;28;20444;-67
2021/09/17 09:52:43;;;;;;;2.53;0.60;;;;;;;17.19;79.05;100802.50;5090435;28;20444;-67
2021/09/17 09:55:10;;;;;;;3.60;0.40;;;;;;;17.18;79.48;100809.94;5090332;28;20440;-67
2021/09/17 09:57:37;;;;;;;0.43;0.30;;;;;;;17.24;79.47;100799.53;5090241;28;20798;-67
2021/09/17 10:00:08;;;;;;;0.40;0.30;;;;;;;17.19;78.65;100803.31;5089778;28;20491;-67
2021/09/17 10:02:36;;;;;;;2.73;0.60;;;;;;;17.19;80.03;100803.31;5090256;28;20799;-68
2021/09/17 10:05:03;;;;;;;0.50;0.40;;;;;;;17.18;80.37;100807.19;5090108;28;20506;-68
2021/09/17 10:07:29;;;;;;;0.50;0.30;;;;;;;17.22;80.89;100805.38;5089766;28;20436;-67
2021/09/17 10:09:58;;;;;;;0.50;0.40;;;;;;;17.21;82.28;100800.22;5090063;28;20443;-67
2021/09/17 10:12:26;;;;;;;0.63;0.40;;;;;;;17.26;81.22;100805.47;5090066;28;20455;-65
2021/09/17 10:14:54;;;;;;;0.60;0.50;;;;;;;17.33;80.27;100795.56;5089930;28;20455;-67
2021/09/17 10:17:25;;;;;;;0.60;0.40;;;;;;;17.29;80.09;100797.38;5089888;28;20440;-66
2021/09/17 10:19:54;;;;;;;0.50;0.30;;;;;;;17.42;80.13;100808.34;5068176;22;20508;-79
2021/09/17 10:22:29;;;;;;;0.50;0.40;;;;;;;17.51;78.98;100806.28;5073252;28;20441;-79
2021/09/17 10:25:12;;;;;;;0.40;0.30;;;;;;;17.55;79.77;100799.78;5031936;28;20455;-80
2021/09/17 10:27:40;;;;;;;0.40;0.30;;;;;;;17.50;79.61;100807.44;5033001;28;20428;-78
2021/09/17 10:30:09;;;;;;;1.90;0.40;;;;;;;17.56;80.56;100797.84;5031854;28;20455;-79
2021/09/17 10:32:39;;;;;;;0.67;0.60;;;;;;;17.56;79.73;100804.13;5023111;28;20456;-78
2021/09/17 10:35:11;;;;;;;2.67;0.50;;;;;;;17.70;76.93;100801.03;5018757;28;20451;-79
2021/09/17 10:38:01;;;;;;;0.40;0.30;;;;;;;17.79;76.69;100801.72;5019056;28;20428;-78
2021/09/17 10:40:44;;;;;;;0.50;0.40;;;;;;;17.80;76.29;100799.81;5018391;28;20494;-78
2021/09/17 10:43:29;;;;;;;0.50;0.30;;;;;;;17.80;77.74;100799.81;5018397;28;20486;-79
2021/09/17 10:45:57;;;;;;;0.40;0.30;;;;;;;17.71;76.74;100796.34;5018338;28;20432;-79
2021/09/17 10:48:27;;;;;;;1.27;0.47;;;;;;;17.75;75.86;100794.53;5018422;28;20498;-78
2021/09/17 10:51:04;;;;;;;0.40;0.30;;;;;;;17.90;76.43;100797.38;5018184;28;20460;-78
2021/09/17 10:54:10;;;;;;;0.40;0.30;;;;;;;17.83;75.47;100788.94;5019165;28;20436;-78
2021/09/17 10:57:06;;;;;;;1.20;0.40;;;;;;;17.92;76.05;100790.75;5019320;28;20460;-78
2021/09/17 10:59:46;;;;;;;0.40;0.30;;;;;;;17.89;74.61;100804.03;5018845;28;20428;-77
2021/09/17 11:02:14;;;;;;;0.47;0.30;;;;;;;17.86;74.65;100798.41;5018530;28;20553;-77
2021/09/17 11:04:43;;;;;;;1.23;0.40;;;;;;;17.88;75.35;100793.38;5018168;28;20440;-77
2021/09/17 11:07:35;;;;;;;0.47;0.33;;;;;;;17.84;74.79;100801.53;5017939;28;20448;-77
2021/09/17 11:10:04;;;;;;;0.40;0.30;;;;;;;17.82;75.19;100792.03;5016757;28;20518;-77
2021/09/17 11:12:33;;;;;;;1.90;0.33;;;;;;;17.79;75.53;100798.19;5017620;28;20448;-77
2021/09/17 11:15:05;;;;;;;0.50;0.30;;;;;;;17.51;77.30;100798.88;5018565;28;20937;-77
2021/09/17 11:17:40;;;;;;;0.50;0.30;;;;;;;17.25;77.30;100801.94;5016984;28;20420;-76
2021/09/17 11:20:09;;;;;;;0.40;0.30;;;;;;;17.10;79.16;100803.41;5018704;28;20489;-76
2021/09/17 11:23:06;;;;;;;0.40;0.30;;;;;;;16.88;79.61;100806.56;5016720;28;20448;-76
2021/09/17 11:25:36;;;;;;;0.40;0.30;;;;;;;16.91;80.07;100797.69;5010979;28;20464;-77
2021/09/17 11:28:06;;;;;;;0.50;0.30;;;;;;;17.02;80.74;100798.03;5038962;28;20813;-78
2021/09/17 11:30:35;;;;;;;0.50;0.30;;;;;;;17.13;79.45;100791.78;5058199;28;20462;-78